Bergen, Canada
Current Conditions -  °F | °C
As of 6:00 PM on Monday 20 Oct 2014 (Local Time) from CYBW Reporting Station
Clear Clear  
Wind Chill: 63°   Ceiling: Unl
Heat Index: 63°   Visibility: 9mi
Dew Point: 28°   Wind: 10mph
Humidity: 27%   Direction: 240°WSW
Pressure: 29.61"   Gusts: NA
Location:  51.71°N, 114.63°W
Report Text: CYBW 210000Z AUTO 24009KT 9SM CLR 17/M02 A2961 RMK TS/LTNG TEMPO UNAVBL SLP040 DENSITY ALT 5400FT
Loading
Personal Weather Stations






























Interactive Weather Map
Tropical Storm Tracking
New forecast layout! Learn more

10-Day Weather Forecast

Advertisements
Track Severe Weather on mobile